Time;durP1;ratioP1;P1;durP2;ratioP2;P2;SDS_P1;SDS_P2;PMS_P1;PMS_P2;Temp;Humidity;BMP_temperature;BMP_pressure;BME280_temperature;BME280_humidity;BME280_pressure;Samples;Min_cycle;Max_cycle;Signal;HPM_P1;HPM_P2
2022/04/23 00:00:06;;;;;;;0.30;0.30;;;7.90;99.90;;;;;;5064681;28;20330;-86
2022/04/23 00:02:32;;;;;;;0.30;0.30;;;7.90;99.90;;;;;;5063453;28;20364;-86
2022/04/23 00:04:57;;;;;;;0.30;0.30;;;7.90;99.90;;;;;;5060063;28;20527;-86
2022/04/23 00:07:23;;;;;;;0.30;0.30;;;7.80;99.90;;;;;;5063904;28;20565;-86
2022/04/23 00:09:48;;;;;;;0.30;0.30;;;7.80;99.90;;;;;;5054068;28;20305;-86
2022/04/23 00:12:14;;;;;;;0.30;0.30;;;7.80;99.90;;;;;;5054607;28;20898;-85
2022/04/23 00:14:39;;;;;;;0.20;0.20;;;7.70;99.90;;;;;;5062037;28;20206;-86
2022/04/23 00:17:05;;;;;;;0.30;0.30;;;7.70;99.90;;;;;;5061924;28;20684;-86
2022/04/23 00:19:30;;;;;;;0.30;0.30;;;7.80;99.90;;;;;;5064470;28;20289;-86
2022/04/23 00:21:56;;;;;;;0.30;0.30;;;7.80;99.90;;;;;;5068025;28;20217;-87
2022/04/23 00:24:21;;;;;;;0.27;0.27;;;7.70;99.90;;;;;;5066097;28;20768;-86
2022/04/23 00:26:47;;;;;;;0.30;0.30;;;7.60;99.90;;;;;;5064821;28;20196;-87
2022/04/23 00:29:12;;;;;;;0.30;0.30;;;7.60;99.90;;;;;;5076715;28;20661;-85
2022/04/23 00:31:38;;;;;;;0.20;0.20;;;7.50;99.90;;;;;;5062587;28;20239;-86
2022/04/23 00:34:03;;;;;;;0.30;0.30;;;7.60;99.90;;;;;;5065195;28;20190;-86
2022/04/23 00:36:29;;;;;;;0.30;0.30;;;7.50;99.90;;;;;;5056686;28;20546;-86
2022/04/23 00:38:55;;;;;;;0.30;0.30;;;7.50;99.90;;;;;;5066421;28;20193;-87
2022/04/23 00:44:06;;;;;;;0.30;0.30;;;7.50;99.90;;;;;;5065008;28;20200;-86
2022/04/23 00:46:31;;;;;;;0.30;0.30;;;7.40;99.90;;;;;;5059203;28;20436;-86
2022/04/23 00:49:00;;;;;;;0.30;0.30;;;7.50;99.90;;;;;;5070079;28;20899;-86
2022/04/23 00:51:27;;;;;;;0.30;0.30;;;7.50;99.90;;;;;;5063443;28;20299;-85
2022/04/23 00:53:54;;;;;;;0.20;0.20;;;7.40;99.90;;;;;;5064501;28;20514;-86
2022/04/23 00:56:20;;;;;;;0.30;0.30;;;7.40;99.90;;;;;;5061506;28;20439;-86
2022/04/23 00:58:46;;;;;;;0.20;0.20;;;7.40;99.90;;;;;;5062717;28;20436;-85
2022/04/23 01:01:12;;;;;;;0.30;0.30;;;7.40;99.90;;;;;;5057454;28;20549;-86
2022/04/23 01:03:39;;;;;;;0.30;0.30;;;7.40;99.90;;;;;;5063937;28;21235;-86
2022/04/23 01:06:06;;;;;;;0.30;0.30;;;7.30;99.90;;;;;;5068378;28;20185;-87
2022/04/23 01:08:33;;;;;;;0.30;0.30;;;7.30;99.90;;;;;;5064316;28;20840;-86
2022/04/23 01:10:59;;;;;;;0.30;0.30;;;7.30;99.90;;;;;;5062540;28;20436;-86
2022/04/23 01:13:25;;;;;;;0.43;0.43;;;7.30;99.90;;;;;;5060028;28;20436;-86
2022/04/23 01:15:57;;;;;;;0.20;0.20;;;7.30;99.90;;;;;;5064936;28;20189;-86
2022/04/23 01:18:22;;;;;;;0.30;0.30;;;7.30;99.90;;;;;;5062758;28;20473;-85
2022/04/23 01:20:48;;;;;;;0.20;0.20;;;7.30;99.90;;;;;;5065350;28;20504;-86
2022/04/23 01:23:14;;;;;;;0.30;0.30;;;7.20;99.90;;;;;;5057828;28;20186;-86
2022/04/23 01:25:39;;;;;;;0.20;0.20;;;7.20;99.90;;;;;;5063131;28;20451;-86
2022/04/23 01:28:06;;;;;;;0.20;0.20;;;7.20;99.90;;;;;;5068429;28;21556;-85
2022/04/23 01:30:32;;;;;;;0.30;0.30;;;7.20;99.90;;;;;;5063164;28;20194;-87
2022/04/23 01:32:57;;;;;;;0.20;0.20;;;7.20;99.90;;;;;;5065120;28;21921;-86
2022/04/23 01:35:23;;;;;;;0.20;0.20;;;7.10;99.90;;;;;;5062872;28;20189;-86
2022/04/23 01:37:49;;;;;;;0.20;0.20;;;7.10;99.90;;;;;;5067273;28;20184;-85
2022/04/23 01:40:16;;;;;;;0.30;0.30;;;7.10;99.90;;;;;;5067976;28;20889;-87
2022/04/23 01:42:42;;;;;;;0.30;0.30;;;7.10;99.90;;;;;;5071331;28;20319;-86
2022/04/23 01:45:08;;;;;;;0.20;0.20;;;7.10;99.90;;;;;;5062378;28;20592;-86
2022/04/23 01:47:34;;;;;;;0.30;0.30;;;7.10;99.90;;;;;;5073985;28;20963;-87
2022/04/23 01:49:59;;;;;;;0.27;0.27;;;7.10;99.90;;;;;;5067719;28;20269;-87
2022/04/23 01:52:25;;;;;;;0.30;0.30;;;7.10;99.90;;;;;;5067079;28;20185;-86
2022/04/23 01:54:50;;;;;;;0.30;0.30;;;7.10;99.90;;;;;;5069310;28;20193;-86
2022/04/23 01:57:16;;;;;;;0.20;0.20;;;7.00;99.90;;;;;;5063399;28;20278;-87
2022/04/23 01:59:41;;;;;;;0.30;0.30;;;7.00;99.90;;;;;;5065722;28;20182;-86
2022/04/23 02:02:07;;;;;;;0.37;0.37;;;7.00;99.90;;;;;;5063597;28;20729;-86
2022/04/23 02:04:32;;;;;;;0.30;0.30;;;6.90;99.90;;;;;;5065901;28;20185;-87
2022/04/23 02:06:58;;;;;;;0.30;0.30;;;6.90;99.90;;;;;;5069420;28;21114;-86
2022/04/23 02:09:23;;;;;;;0.30;0.30;;;6.90;99.90;;;;;;5064103;28;20275;-87
2022/04/23 02:11:49;;;;;;;0.30;0.30;;;7.00;99.90;;;;;;5066930;28;20641;-86
2022/04/23 02:14:15;;;;;;;0.30;0.30;;;6.90;99.90;;;;;;5072321;28;20276;-86
2022/04/23 02:16:41;;;;;;;0.40;0.40;;;6.80;99.90;;;;;;5062525;28;20643;-87
2022/04/23 02:19:07;;;;;;;0.37;0.37;;;6.80;99.90;;;;;;5065913;28;20578;-88
2022/04/23 02:21:32;;;;;;;0.43;0.43;;;6.80;99.90;;;;;;5068725;28;20728;-89
2022/04/23 02:23:58;;;;;;;0.50;0.50;;;6.80;99.90;;;;;;5068358;28;20209;-87
2022/04/23 02:26:24;;;;;;;0.50;0.50;;;6.80;99.90;;;;;;5067614;28;20202;-88
2022/04/23 02:28:52;;;;;;;0.40;0.40;;;6.80;99.90;;;;;;5066400;28;20185;-89
2022/04/23 02:31:18;;;;;;;0.47;0.47;;;6.80;99.90;;;;;;5063694;28;20557;-89
2022/04/23 02:33:44;;;;;;;0.60;0.60;;;6.90;99.90;;;;;;5070635;28;20521;-88
2022/04/23 02:36:11;;;;;;;0.30;0.30;;;6.80;99.90;;;;;;5069884;28;20830;-88
2022/04/23 02:38:40;;;;;;;0.20;0.20;;;6.80;99.90;;;;;;5065623;28;20471;-88
2022/04/23 02:41:09;;;;;;;0.30;0.30;;;6.80;99.90;;;;;;5067611;28;20490;-88
2022/04/23 02:43:38;;;;;;;0.30;0.30;;;6.80;99.90;;;;;;5068637;28;20532;-88
2022/04/23 02:46:06;;;;;;;0.30;0.30;;;6.80;99.90;;;;;;5064708;28;20654;-88
2022/04/23 02:48:32;;;;;;;0.30;0.30;;;6.80;99.90;;;;;;5068786;28;20462;-88
2022/04/23 02:50:57;;;;;;;0.30;0.30;;;6.80;99.90;;;;;;5066561;28;20963;-88
2022/04/23 02:53:23;;;;;;;0.20;0.20;;;6.80;99.90;;;;;;5064039;28;20659;-88
2022/04/23 02:55:51;;;;;;;0.30;0.30;;;6.80;99.90;;;;;;5063047;28;20205;-88
2022/04/23 02:58:17;;;;;;;0.30;0.30;;;6.80;99.90;;;;;;5068892;28;20547;-88
2022/04/23 03:00:42;;;;;;;0.30;0.30;;;6.70;99.90;;;;;;5064519;28;20462;-88
2022/04/23 03:03:09;;;;;;;0.30;0.30;;;6.70;99.90;;;;;;5066738;28;20186;-88
2022/04/23 03:05:35;;;;;;;0.30;0.30;;;6.70;99.90;;;;;;5066919;28;20191;-88
2022/04/23 03:08:02;;;;;;;0.30;0.30;;;6.80;99.90;;;;;;5068827;28;20453;-87
2022/04/23 03:10:29;;;;;;;0.30;0.30;;;6.70;99.90;;;;;;5064348;28;20494;-88
2022/04/23 03:12:56;;;;;;;0.40;0.40;;;6.60;99.90;;;;;;5066086;28;20590;-88
2022/04/23 03:15:22;;;;;;;0.30;0.30;;;6.70;99.90;;;;;;5065880;28;20612;-88
2022/04/23 03:17:47;;;;;;;0.30;0.30;;;6.70;99.90;;;;;;5070070;28;20991;-87
2022/04/23 03:20:14;;;;;;;0.30;0.30;;;6.70;99.90;;;;;;5067776;28;20220;-88
2022/04/23 03:22:40;;;;;;;0.30;0.30;;;6.70;99.90;;;;;;5064195;28;20194;-89
2022/04/23 03:25:07;;;;;;;0.30;0.30;;;6.70;99.90;;;;;;5074258;28;20496;-88
2022/04/23 03:27:33;;;;;;;0.30;0.30;;;6.70;99.90;;;;;;5062286;28;20455;-89
2022/04/23 03:29:59;;;;;;;0.30;0.30;;;6.70;99.90;;;;;;5067300;28;20432;-88
2022/04/23 03:32:25;;;;;;;0.30;0.30;;;6.70;99.90;;;;;;5065523;28;20282;-87
2022/04/23 03:34:51;;;;;;;0.30;0.30;;;6.70;99.90;;;;;;5062929;28;20428;-88
2022/04/23 03:37:17;;;;;;;0.30;0.30;;;6.60;99.90;;;;;;5071686;28;20442;-88
2022/04/23 03:39:43;;;;;;;0.30;0.30;;;6.60;99.90;;;;;;5081360;28;20194;-88
2022/04/23 03:42:09;;;;;;;0.30;0.30;;;6.60;99.90;;;;;;5068353;28;20519;-88
2022/04/23 03:44:35;;;;;;;0.37;0.37;;;6.70;99.90;;;;;;5064521;28;20517;-88
2022/04/23 03:47:03;;;;;;;0.30;0.30;;;6.60;99.90;;;;;;5058160;28;20562;-87
2022/04/23 03:49:30;;;;;;;0.30;0.30;;;6.50;99.90;;;;;;5071030;28;20197;-88
2022/04/23 03:51:56;;;;;;;0.30;0.30;;;6.50;99.90;;;;;;5070103;28;20443;-88
2022/04/23 03:54:22;;;;;;;0.30;0.30;;;6.50;99.90;;;;;;5068839;28;20541;-88
2022/04/23 03:56:48;;;;;;;0.40;0.40;;;6.40;99.90;;;;;;5062536;28;20987;-88
2022/04/23 03:59:15;;;;;;;0.40;0.40;;;6.40;99.90;;;;;;5071191;28;20179;-88
2022/04/23 04:01:41;;;;;;;0.40;0.40;;;6.40;99.90;;;;;;5067324;28;20966;-88
2022/04/23 04:04:07;;;;;;;0.30;0.30;;;6.40;99.90;;;;;;5063705;28;20436;-88
2022/04/23 04:06:33;;;;;;;0.30;0.30;;;6.50;99.90;;;;;;5063808;28;20448;-87
2022/04/23 04:08:58;;;;;;;0.30;0.30;;;6.50;99.90;;;;;;5064362;28;20407;-88
2022/04/23 04:11:24;;;;;;;0.30;0.30;;;6.40;99.90;;;;;;5053758;28;20445;-88
2022/04/23 04:13:49;;;;;;;0.30;0.30;;;6.50;99.90;;;;;;5056860;28;20194;-87
2022/04/23 04:16:17;;;;;;;0.30;0.30;;;6.50;99.90;;;;;;5064228;28;20198;-88
2022/04/23 04:18:43;;;;;;;0.30;0.30;;;6.40;99.90;;;;;;5066485;28;20226;-88
2022/04/23 04:21:08;;;;;;;0.40;0.40;;;6.50;99.90;;;;;;5062808;28;20967;-87
2022/04/23 04:23:34;;;;;;;0.30;0.30;;;6.40;99.90;;;;;;5062894;28;20440;-87
2022/04/23 04:26:00;;;;;;;0.30;0.30;;;6.50;99.90;;;;;;5062343;28;20276;-87
2022/04/23 04:28:26;;;;;;;0.30;0.30;;;6.50;99.90;;;;;;5068386;28;20634;-88
2022/04/23 04:33:36;;;;;;;0.23;0.23;;;6.60;99.90;;;;;;5060969;28;20672;-88
2022/04/23 04:36:02;;;;;;;0.40;0.40;;;6.60;99.90;;;;;;5063640;28;20441;-88
2022/04/23 04:38:27;;;;;;;0.30;0.30;;;6.60;99.90;;;;;;5058288;28;20208;-88
2022/04/23 04:40:53;;;;;;;0.40;0.40;;;6.60;99.90;;;;;;5060915;28;21223;-88
2022/04/23 04:43:18;;;;;;;0.40;0.40;;;6.60;99.90;;;;;;5060469;28;20182;-88
2022/04/23 04:45:44;;;;;;;0.30;0.30;;;6.70;99.90;;;;;;5057201;28;20198;-87
2022/04/23 04:48:09;;;;;;;0.30;0.30;;;6.70;99.90;;;;;;5069006;28;20189;-87
2022/04/23 04:50:35;;;;;;;0.30;0.30;;;6.70;99.90;;;;;;5062076;28;20190;-87
2022/04/23 04:53:00;;;;;;;0.40;0.40;;;6.70;99.90;;;;;;5067445;28;20223;-87
2022/04/23 04:55:27;;;;;;;0.30;0.30;;;6.80;99.90;;;;;;5062891;28;20186;-87
2022/04/23 04:57:52;;;;;;;0.30;0.30;;;6.90;99.90;;;;;;5088623;28;20189;-87
2022/04/23 05:00:18;;;;;;;0.30;0.30;;;7.00;99.90;;;;;;5067615;28;20499;-88
2022/04/23 05:02:44;;;;;;;0.30;0.30;;;7.00;99.90;;;;;;5055944;28;20186;-87
2022/04/23 05:05:10;;;;;;;0.30;0.30;;;7.10;99.90;;;;;;5061427;28;20216;-86
2022/04/23 05:07:35;;;;;;;0.30;0.30;;;7.00;99.90;;;;;;5062159;28;21060;-85
2022/04/23 05:10:02;;;;;;;0.30;0.30;;;7.10;99.90;;;;;;5066695;28;20881;-85
2022/04/23 05:12:28;;;;;;;0.30;0.30;;;7.20;99.90;;;;;;5063163;28;20249;-86
2022/04/23 05:14:53;;;;;;;0.30;0.30;;;7.30;99.90;;;;;;5083211;28;20478;-86
2022/04/23 05:17:19;;;;;;;0.30;0.30;;;7.30;99.90;;;;;;5072733;28;20196;-86
2022/04/23 05:19:44;;;;;;;0.20;0.20;;;7.30;99.90;;;;;;5069829;28;20333;-86
2022/04/23 05:22:10;;;;;;;0.30;0.30;;;7.40;99.90;;;;;;5061289;28;20232;-86
2022/04/23 05:24:35;;;;;;;0.40;0.40;;;7.40;99.90;;;;;;5060734;28;20193;-85
2022/04/23 05:27:01;;;;;;;0.30;0.30;;;7.40;99.90;;;;;;5065074;28;20284;-86
2022/04/23 05:29:26;;;;;;;0.30;0.30;;;7.50;99.90;;;;;;5075198;28;20660;-85
2022/04/23 05:31:52;;;;;;;0.30;0.30;;;7.50;99.90;;;;;;5067652;28;20609;-85
2022/04/23 05:34:17;;;;;;;0.47;0.47;;;7.60;99.90;;;;;;5064567;28;20199;-86
2022/04/23 05:36:43;;;;;;;0.30;0.30;;;7.80;99.90;;;;;;5067267;28;20178;-86
2022/04/23 05:39:08;;;;;;;0.60;0.60;;;7.90;99.90;;;;;;5067203;28;20186;-86
2022/04/23 05:41:34;;;;;;;0.30;0.30;;;8.00;99.90;;;;;;5074391;28;20224;-87
2022/04/23 05:43:59;;;;;;;0.30;0.30;;;7.90;99.90;;;;;;5064791;28;20268;-86
2022/04/23 05:46:25;;;;;;;0.30;0.30;;;8.00;99.90;;;;;;5064625;28;20190;-86
2022/04/23 05:48:50;;;;;;;0.30;0.30;;;8.10;99.90;;;;;;5078957;28;21505;-84
2022/04/23 05:51:16;;;;;;;0.20;0.20;;;8.20;99.90;;;;;;5069074;28;20190;-87
2022/04/23 05:53:41;;;;;;;0.20;0.20;;;8.20;99.90;;;;;;5066823;28;20182;-86
2022/04/23 05:56:07;;;;;;;0.20;0.20;;;8.30;99.90;;;;;;5063829;28;20530;-86
2022/04/23 05:58:36;;;;;;;0.20;0.20;;;8.30;99.90;;;;;;5066212;28;20182;-86
2022/04/23 06:01:03;;;;;;;0.20;0.20;;;8.40;99.90;;;;;;5070293;28;20225;-85
2022/04/23 06:03:28;;;;;;;0.20;0.20;;;8.40;99.90;;;;;;5057474;28;20444;-85
2022/04/23 06:05:54;;;;;;;0.20;0.20;;;8.60;99.90;;;;;;5060732;28;20447;-85
2022/04/23 06:08:20;;;;;;;0.20;0.20;;;8.70;99.90;;;;;;5069355;28;20189;-85
2022/04/23 06:10:45;;;;;;;0.20;0.20;;;8.80;99.90;;;;;;5071685;28;20189;-85
2022/04/23 06:13:11;;;;;;;0.20;0.20;;;8.90;99.90;;;;;;5065166;28;20444;-86
2022/04/23 06:15:37;;;;;;;0.30;0.30;;;9.00;99.90;;;;;;5067915;28;20995;-86
2022/04/23 06:18:02;;;;;;;0.20;0.20;;;9.00;99.90;;;;;;5068270;28;20218;-85
2022/04/23 06:20:28;;;;;;;0.20;0.20;;;9.20;99.90;;;;;;5072101;28;20251;-87
2022/04/23 06:22:53;;;;;;;0.20;0.20;;;9.20;99.90;;;;;;5063963;28;20468;-86
2022/04/23 06:25:19;;;;;;;0.20;0.20;;;9.30;99.90;;;;;;5064555;28;20178;-86
2022/04/23 06:27:44;;;;;;;0.20;0.20;;;9.30;99.90;;;;;;5064556;28;20197;-86
2022/04/23 06:30:10;;;;;;;0.40;0.40;;;9.30;99.90;;;;;;5075171;28;20182;-85
2022/04/23 06:32:39;;;;;;;0.20;0.20;;;9.40;99.90;;;;;;5067281;28;20205;-85
2022/04/23 06:35:06;;;;;;;0.20;0.20;;;9.40;99.90;;;;;;5074982;28;20221;-85
2022/04/23 06:37:38;;;;;;;0.30;0.30;;;9.40;99.90;;;;;;5063186;28;20564;-86
2022/04/23 06:40:04;;;;;;;0.20;0.20;;;9.40;99.90;;;;;;5064650;28;20455;-84
2022/04/23 06:42:29;;;;;;;0.30;0.30;;;9.30;99.90;;;;;;5075898;28;20447;-84
2022/04/23 06:44:55;;;;;;;0.20;0.20;;;9.30;99.90;;;;;;5067315;28;21090;-85
2022/04/23 06:47:20;;;;;;;0.20;0.20;;;9.50;99.90;;;;;;5062483;28;20270;-85
2022/04/23 06:49:46;;;;;;;0.20;0.20;;;9.70;99.90;;;;;;5063621;28;20656;-86
2022/04/23 06:52:11;;;;;;;0.20;0.20;;;9.60;99.90;;;;;;5057268;28;20309;-85
2022/04/23 06:54:37;;;;;;;0.30;0.30;;;9.80;99.90;;;;;;5063321;28;20256;-85
2022/04/23 06:57:02;;;;;;;0.20;0.20;;;9.90;99.90;;;;;;5061165;28;20352;-85
2022/04/23 06:59:28;;;;;;;0.30;0.30;;;10.00;99.90;;;;;;5067737;28;20189;-86
2022/04/23 07:01:54;;;;;;;0.30;0.30;;;10.10;99.90;;;;;;5059391;28;20753;-85
2022/04/23 07:04:20;;;;;;;0.20;0.20;;;10.20;99.90;;;;;;5065674;28;20519;-86
2022/04/23 07:06:45;;;;;;;0.20;0.20;;;10.30;99.90;;;;;;5061006;28;20194;-84
2022/04/23 07:09:11;;;;;;;0.30;0.30;;;10.30;99.90;;;;;;5065481;28;20174;-84
2022/04/23 07:11:36;;;;;;;0.33;0.33;;;10.40;99.90;;;;;;5069877;28;20181;-83
2022/04/23 07:14:01;;;;;;;0.47;0.47;;;10.50;99.90;;;;;;5074521;28;20181;-85
2022/04/23 07:16:27;;;;;;;0.50;0.50;;;10.50;99.90;;;;;;5082169;28;20271;-85
2022/04/23 07:18:53;;;;;;;0.20;0.20;;;10.50;99.90;;;;;;5070986;28;20313;-84
2022/04/23 07:21:20;;;;;;;0.30;0.30;;;10.50;99.90;;;;;;5079722;28;20224;-84
2022/04/23 07:26:31;;;;;;;0.20;0.20;;;10.90;99.90;;;;;;5051774;28;21010;-83
2022/04/23 07:28:57;;;;;;;0.10;0.10;;;11.00;99.90;;;;;;5063270;28;20440;-82
2022/04/23 07:31:23;;;;;;;0.17;0.17;;;11.30;99.90;;;;;;5070191;28;20838;-83
2022/04/23 07:39:17;;;;;;;0.23;0.23;;;11.50;99.90;;;;;;5058153;28;20443;-84
2022/04/23 07:41:43;;;;;;;0.20;0.20;;;11.70;99.90;;;;;;5071694;28;20486;-83
2022/04/23 07:44:09;;;;;;;0.10;0.10;;;11.80;99.90;;;;;;5057994;28;20186;-84
2022/04/23 07:46:35;;;;;;;0.30;0.30;;;11.80;99.90;;;;;;5055156;28;20967;-84
2022/04/23 07:49:01;;;;;;;0.27;0.27;;;11.80;99.90;;;;;;5064374;28;20181;-82
2022/04/23 07:51:27;;;;;;;0.20;0.20;;;11.80;99.90;;;;;;5062169;28;20447;-82
2022/04/23 07:53:53;;;;;;;0.10;0.10;;;11.90;99.90;;;;;;5060935;28;20182;-82
2022/04/23 07:56:19;;;;;;;0.10;0.10;;;12.10;99.90;;;;;;5067008;28;20179;-84
2022/04/23 07:58:44;;;;;;;0.30;0.30;;;12.10;99.90;;;;;;5055471;28;20893;-84
2022/04/23 08:01:10;;;;;;;0.20;0.20;;;12.20;99.90;;;;;;5062303;28;20215;-83
2022/04/23 08:03:35;;;;;;;0.10;0.10;;;12.40;99.90;;;;;;5075834;28;20182;-84
2022/04/23 08:06:02;;;;;;;0.10;0.10;;;12.60;99.90;;;;;;5056417;28;20600;-84
2022/04/23 08:08:27;;;;;;;0.20;0.20;;;12.60;99.90;;;;;;5064229;28;20232;-84
2022/04/23 08:10:53;;;;;;;0.10;0.10;;;12.60;99.90;;;;;;5067464;28;20479;-84
2022/04/23 08:13:19;;;;;;;0.10;0.10;;;12.90;99.90;;;;;;5063622;28;20186;-85
2022/04/23 08:15:45;;;;;;;0.13;0.13;;;12.80;99.90;;;;;;5061778;28;20565;-84
2022/04/23 08:18:11;;;;;;;0.17;0.17;;;12.90;99.90;;;;;;5061110;28;20878;-84
2022/04/23 08:20:40;;;;;;;0.10;0.10;;;12.80;99.90;;;;;;5063263;28;20467;-84
2022/04/23 08:23:06;;;;;;;0.20;0.20;;;12.90;99.90;;;;;;5060876;28;20182;-83
2022/04/23 08:25:31;;;;;;;0.10;0.10;;;13.20;99.90;;;;;;5059962;28;20427;-85
2022/04/23 08:30:43;;;;;;;0.10;0.10;;;13.30;99.90;;;;;;5037042;28;20198;-84
2022/04/23 08:33:08;;;;;;;0.10;0.10;;;13.60;99.90;;;;;;5069493;28;20490;-84
2022/04/23 08:35:36;;;;;;;0.10;0.10;;;13.50;99.90;;;;;;5069428;28;20213;-84
2022/04/23 08:38:06;;;;;;;0.10;0.10;;;13.70;99.90;;;;;;5071662;28;20183;-83
2022/04/23 08:40:35;;;;;;;0.10;0.10;;;13.90;99.90;;;;;;5068421;28;20468;-85
2022/04/23 08:43:01;;;;;;;0.10;0.10;;;14.20;99.90;;;;;;5066439;28;20443;-85
2022/04/23 08:45:27;;;;;;;0.10;0.10;;;14.00;99.90;;;;;;5074734;28;20516;-85
2022/04/23 08:47:52;;;;;;;0.10;0.10;;;14.30;99.90;;;;;;5063796;28;20189;-84
2022/04/23 08:50:22;;;;;;;0.10;0.10;;;14.40;99.90;;;;;;5066589;28;20177;-84
2022/04/23 08:52:53;;;;;;;0.10;0.10;;;14.60;99.90;;;;;;5060046;28;20190;-85
2022/04/23 08:55:19;;;;;;;0.10;0.10;;;14.70;99.90;;;;;;5072556;28;20551;-83
2022/04/23 08:57:45;;;;;;;0.10;0.10;;;14.60;99.90;;;;;;5053518;28;21078;-85
2022/04/23 09:00:14;;;;;;;0.10;0.10;;;14.60;99.90;;;;;;5058399;28;20438;-85
2022/04/23 09:02:41;;;;;;;0.10;0.10;;;14.70;99.90;;;;;;5058302;28;20288;-86
2022/04/23 09:05:08;;;;;;;0.10;0.10;;;14.70;99.90;;;;;;5070234;28;20436;-84
2022/04/23 09:07:34;;;;;;;0.10;0.10;;;14.80;99.90;;;;;;5049508;28;20441;-84
2022/04/23 09:10:00;;;;;;;0.10;0.10;;;14.80;99.90;;;;;;5057013;28;21024;-85
2022/04/23 09:12:27;;;;;;;0.10;0.10;;;14.60;99.90;;;;;;5060218;28;20443;-86
2022/04/23 09:15:04;;;;;;;0.10;0.10;;;14.70;99.90;;;;;;5066100;28;20281;-84
2022/04/23 09:25:47;;;;;;;0.10;0.10;;;14.80;99.90;;;;;;5063097;28;20483;-84
2022/04/23 09:28:20;;;;;;;0.10;0.10;;;15.30;99.90;;;;;;5066181;28;20432;-84
2022/04/23 09:30:51;;;;;;;0.10;0.10;;;15.10;99.90;;;;;;5071206;28;20433;-84
2022/04/23 09:33:17;;;;;;;0.10;0.10;;;15.30;99.90;;;;;;5056372;28;20984;-83
2022/04/23 09:35:55;;;;;;;0.10;0.10;;;15.30;99.90;;;;;;5063556;28;20453;-83
2022/04/23 09:38:20;;;;;;;0.10;0.10;;;15.50;99.90;;;;;;5066464;28;20436;-84
2022/04/23 09:40:54;;;;;;;0.10;0.10;;;15.30;99.90;;;;;;5066225;28;20509;-84
2022/04/23 09:43:30;;;;;;;0.10;0.10;;;15.30;99.90;;;;;;5064268;28;20453;-84
2022/04/23 09:46:04;;;;;;;0.10;0.10;;;15.20;99.90;;;;;;5065322;28;20530;-84
2022/04/23 09:48:30;;;;;;;0.10;0.10;;;15.30;99.90;;;;;;5068559;28;20476;-87
2022/04/23 09:50:59;;;;;;;0.10;0.10;;;15.60;99.90;;;;;;5067540;28;20475;-87
2022/04/23 09:53:27;;;;;;;0.10;0.10;;;15.70;99.90;;;;;;5057295;28;20724;-87
2022/04/23 09:55:59;;;;;;;0.10;0.10;;;16.00;99.90;;;;;;5061183;28;20434;-84
2022/04/23 09:58:29;;;;;;;0.10;0.10;;;15.90;99.90;;;;;;5066837;28;20447;-86
2022/04/23 10:00:56;;;;;;;0.10;0.10;;;16.10;99.90;;;;;;5065183;28;20545;-87
2022/04/23 10:03:30;;;;;;;0.10;0.10;;;16.10;99.90;;;;;;5059036;28;20440;-86
2022/04/23 10:05:56;;;;;;;0.10;0.10;;;15.90;99.90;;;;;;5068502;28;21026;-86
2022/04/23 10:08:27;;;;;;;0.10;0.10;;;15.90;99.90;;;;;;5060063;28;20465;-86
2022/04/23 10:10:59;;;;;;;0.10;0.10;;;16.10;99.90;;;;;;5065733;28;20439;-87
2022/04/23 10:13:28;;;;;;;0.10;0.10;;;16.20;99.90;;;;;;5067695;28;20432;-87
2022/04/23 10:15:54;;;;;;;0.10;0.10;;;16.90;99.90;;;;;;5053145;28;20436;-86
2022/04/23 10:18:21;;;;;;;0.10;0.10;;;17.40;99.90;;;;;;5057711;28;20475;-86
2022/04/23 10:20:55;;;;;;;0.10;0.10;;;17.60;99.90;;;;;;5059114;28;20472;-86
2022/04/23 10:23:34;;;;;;;0.10;0.10;;;17.60;99.90;;;;;;5072038;28;20454;-88
2022/04/23 10:26:38;;;;;;;0.10;0.10;;;17.70;99.90;;;;;;5075191;28;20527;-88
2022/04/23 10:29:11;;;;;;;0.10;0.10;;;18.20;99.90;;;;;;5068187;28;20507;-87
2022/04/23 10:31:37;;;;;;;0.10;0.10;;;18.40;99.90;;;;;;5068155;28;20436;-87
2022/04/23 10:34:03;;;;;;;0.10;0.10;;;19.00;99.90;;;;;;5071847;28;20447;-87
2022/04/23 10:36:29;;;;;;;0.10;0.07;;;19.20;99.90;;;;;;5074036;28;20435;-89
2022/04/23 10:39:18;;;;;;;0.10;0.00;;;18.80;99.90;;;;;;5075102;28;20451;-86
2022/04/23 10:41:44;;;;;;;0.10;0.00;;;19.30;99.90;;;;;;5070034;28;20533;-89
2022/04/23 10:44:09;;;;;;;0.10;0.00;;;19.70;99.90;;;;;;5068333;28;20444;-86
2022/04/23 10:46:38;;;;;;;0.10;0.00;;;19.80;99.90;;;;;;5060427;28;20214;-87
2022/04/23 10:49:24;;;;;;;0.10;0.00;;;20.00;99.90;;;;;;5067526;28;20185;-89
2022/04/23 10:51:57;;;;;;;0.00;0.00;;;20.10;99.90;;;;;;5067316;28;20510;-88
2022/04/23 10:54:42;;;;;;;0.00;0.00;;;19.60;99.90;;;;;;5067768;28;20876;-86
2022/04/23 10:57:09;;;;;;;0.00;0.00;;;19.80;99.90;;;;;;5063855;28;22221;-87
2022/04/23 10:59:46;;;;;;;0.00;0.00;;;20.10;99.90;;;;;;5071122;28;20440;-91
2022/04/23 11:02:14;;;;;;;0.00;0.00;;;20.20;99.90;;;;;;5065575;28;20487;-88
2022/04/23 11:14:44;;;;;;;0.00;0.00;;;20.40;99.90;;;;;;5068139;28;20439;-87
2022/04/23 11:17:14;;;;;;;0.00;0.00;;;20.70;99.90;;;;;;5051124;28;20537;-88
2022/04/23 11:19:40;;;;;;;0.00;0.00;;;20.60;99.90;;;;;;5055263;28;20480;-87
2022/04/23 11:22:09;;;;;;;0.00;0.00;;;20.90;99.90;;;;;;5071819;28;20879;-88
2022/04/23 11:24:35;;;;;;;0.00;0.00;;;20.80;99.90;;;;;;5069192;28;20577;-87
2022/04/23 11:27:00;;;;;;;0.00;0.00;;;21.00;99.90;;;;;;5059720;28;20485;-89
2022/04/23 11:29:27;;;;;;;0.00;0.00;;;21.10;99.90;;;;;;5073774;28;20871;-87
2022/04/23 11:31:55;;;;;;;0.00;0.00;;;21.20;99.90;;;;;;5071157;28;20181;-91
2022/04/23 11:34:22;;;;;;;0.00;0.00;;;21.10;99.90;;;;;;5068263;28;20509;-89
2022/04/23 11:36:48;;;;;;;0.00;0.00;;;21.10;99.90;;;;;;5066088;28;20536;-89
2022/04/23 11:39:14;;;;;;;0.00;0.00;;;21.40;99.90;;;;;;5066437;28;20463;-87
2022/04/23 11:41:43;;;;;;;0.00;0.00;;;21.20;99.90;;;;;;5063773;28;20515;-88
2022/04/23 11:44:13;;;;;;;0.00;0.00;;;21.50;99.90;;;;;;5063512;28;20182;-88
2022/04/23 11:46:51;;;;;;;0.00;0.00;;;21.60;99.90;;;;;;5069255;28;20948;-89
2022/04/23 11:49:29;;;;;;;0.00;0.00;;;21.80;99.90;;;;;;5067357;28;20446;-89
2022/04/23 11:52:25;;;;;;;0.00;0.00;;;21.30;99.90;;;;;;5068268;28;21024;-88
2022/04/23 11:54:53;;;;;;;0.00;0.00;;;21.80;99.90;;;;;;5051364;28;20463;-90
2022/04/23 11:57:19;;;;;;;0.00;0.00;;;22.00;99.90;;;;;;5072211;28;20452;-89
2022/04/23 11:59:46;;;;;;;0.00;0.00;;;22.00;99.90;;;;;;5064259;28;21209;-88
2022/04/23 12:02:22;;;;;;;0.00;0.00;;;21.80;99.50;;;;;;5067395;28;20232;-89
2022/04/23 12:04:49;;;;;;;0.00;0.00;;;21.50;99.90;;;;;;5065491;28;20439;-89
2022/04/23 12:07:16;;;;;;;0.00;0.00;;;21.70;97.10;;;;;;5078393;28;20560;-89
2022/04/23 12:09:50;;;;;;;0.00;0.00;;;21.70;97.80;;;;;;5073313;28;20501;-88
2022/04/23 12:12:36;;;;;;;0.00;0.00;;;22.00;98.70;;;;;;5065343;28;21472;-90
2022/04/23 12:15:06;;;;;;;0.00;0.00;;;22.10;96.80;;;;;;5069979;28;21327;-88
2022/04/23 12:17:47;;;;;;;0.00;0.00;;;22.40;97.60;;;;;;5056252;28;21167;-87
2022/04/23 12:20:17;;;;;;;0.00;0.00;;;22.20;96.50;;;;;;5067532;28;21077;-87
2022/04/23 12:23:00;;;;;;;0.00;0.00;;;22.30;97.50;;;;;;5081576;28;20815;-88
2022/04/23 12:25:31;;;;;;;0.00;0.00;;;22.60;96.60;;;;;;5068794;28;20485;-87
2022/04/23 12:42:03;;;;;;;0.00;0.00;;;22.40;94.70;;;;;;5070021;28;20599;-89
2022/04/23 12:44:43;;;;;;;0.00;0.00;;;22.20;94.40;;;;;;5078564;28;20497;-88
2022/04/23 12:47:13;;;;;;;0.00;0.00;;;22.10;94.20;;;;;;5056437;28;20436;-88
2022/04/23 12:49:55;;;;;;;0.00;0.00;;;22.30;93.70;;;;;;5065763;28;20428;-87
2022/04/23 12:52:21;;;;;;;0.00;0.00;;;22.40;94.30;;;;;;5066484;28;20942;-89
2022/04/23 12:55:10;;;;;;;0.00;0.00;;;22.60;94.30;;;;;;5065719;28;20435;-90
2022/04/23 12:57:36;;;;;;;0.00;0.00;;;22.80;93.90;;;;;;5060366;28;20446;-90
2022/04/23 13:00:01;;;;;;;0.00;0.00;;;22.80;93.70;;;;;;5065659;28;20435;-93
2022/04/23 13:02:36;;;;;;;0.00;0.00;;;23.10;94.40;;;;;;5060528;28;20747;-89
2022/04/23 13:05:02;;;;;;;0.00;0.00;;;23.10;94.00;;;;;;5071775;28;20179;-88
2022/04/23 13:10:12;;;;;;;0.00;0.00;;;23.10;92.60;;;;;;5070507;28;20506;-88
2022/04/23 13:12:37;;;;;;;0.00;0.00;;;22.70;92.70;;;;;;5076332;28;20463;-88
2022/04/23 13:15:04;;;;;;;0.00;0.00;;;22.60;93.60;;;;;;5084130;28;20185;-87
2022/04/23 13:17:30;;;;;;;0.00;0.00;;;22.70;93.10;;;;;;5064783;28;20181;-89
2022/04/23 13:19:55;;;;;;;0.00;0.00;;;22.80;91.90;;;;;;5077919;28;20443;-87
2022/04/23 13:22:21;;;;;;;0.00;0.00;;;22.40;91.30;;;;;;5079223;28;20220;-85
2022/04/23 13:24:48;;;;;;;0.00;0.00;;;22.20;92.10;;;;;;5068339;28;20243;-88
2022/04/23 13:27:14;;;;;;;0.00;0.00;;;22.00;92.70;;;;;;5067119;28;20182;-89
2022/04/23 13:29:40;;;;;;;0.00;0.00;;;22.30;91.90;;;;;;5065870;28;21026;-87
2022/04/23 13:32:05;;;;;;;0.00;0.00;;;22.20;92.70;;;;;;5059052;28;20186;-87
2022/04/23 13:34:31;;;;;;;0.00;0.00;;;22.30;91.50;;;;;;5061070;28;20186;-87
2022/04/23 13:36:56;;;;;;;0.00;0.00;;;22.40;91.50;;;;;;5068042;28;20186;-88
2022/04/23 13:39:22;;;;;;;0.00;0.00;;;22.30;92.50;;;;;;5066693;28;20657;-87
2022/04/23 13:41:49;;;;;;;0.00;0.00;;;21.70;91.50;;;;;;5065711;28;20321;-88
2022/04/23 13:44:15;;;;;;;0.00;0.00;;;21.90;93.00;;;;;;5066088;28;20278;-89